Time;durP1;ratioP1;P1;durP2;ratioP2;P2;SDS_P1;SDS_P2;PMS_P1;PMS_P2;Temp;Humidity;BMP_temperature;BMP_pressure;BME280_temperature;BME280_humidity;BME280_pressure;Samples;Min_cycle;Max_cycle;Signal;HPM_P1;HPM_P2
2021/06/18 00:02:23;;;;;;;6.17;5.30;;;22.00;78.90;;;;;;6302303;28;20231;-66
2021/06/18 00:05:27;;;;;;;6.30;5.80;;;22.00;79.00;;;;;;6274931;28;20235;-66
2021/06/18 00:08:31;;;;;;;6.07;5.43;;;21.90;79.00;;;;;;6275668;28;20227;-65
2021/06/18 00:11:35;;;;;;;5.80;5.30;;;21.90;79.00;;;;;;6280340;28;20234;-65
2021/06/18 00:14:38;;;;;;;6.80;5.90;;;22.00;79.20;;;;;;6287277;28;20237;-64
2021/06/18 00:17:41;;;;;;;6.00;5.50;;;22.00;79.20;;;;;;6285590;28;20239;-65
2021/06/18 00:20:44;;;;;;;7.57;5.87;;;21.90;79.20;;;;;;6279349;28;20238;-65
2021/06/18 00:23:49;;;;;;;7.07;5.50;;;21.90;79.40;;;;;;6277732;28;20227;-65
2021/06/18 00:26:52;;;;;;;5.47;5.07;;;21.80;79.80;;;;;;6277742;28;20235;-65
2021/06/18 00:29:55;;;;;;;6.23;5.70;;;21.90;80.50;;;;;;6277053;28;20224;-65
2021/06/18 00:32:58;;;;;;;6.17;5.77;;;21.90;81.30;;;;;;6277688;28;20683;-65
2021/06/18 00:36:06;;;;;;;6.10;5.60;;;21.80;81.30;;;;;;6277376;28;20602;-65
2021/06/18 00:39:11;;;;;;;7.90;6.10;;;21.90;81.50;;;;;;6277806;28;20227;-66
2021/06/18 00:42:14;;;;;;;7.00;5.47;;;21.80;81.60;;;;;;6277421;28;20227;-66
2021/06/18 00:45:18;;;;;;;6.13;5.53;;;21.80;81.20;;;;;;6277717;28;20224;-66
2021/06/18 00:48:23;;;;;;;6.30;5.90;;;21.70;81.70;;;;;;6276885;28;20278;-66
2021/06/18 00:51:26;;;;;;;9.30;6.50;;;21.70;81.60;;;;;;6277333;28;20227;-66
2021/06/18 00:54:31;;;;;;;6.20;5.70;;;21.80;81.60;;;;;;6277300;28;20238;-66
2021/06/18 00:57:34;;;;;;;7.43;6.37;;;21.70;81.20;;;;;;6277026;28;20273;-66
2021/06/18 01:00:37;;;;;;;7.03;6.43;;;21.60;81.60;;;;;;6276684;28;20231;-66
2021/06/18 01:03:40;;;;;;;6.20;5.70;;;21.50;82.20;;;;;;6276987;28;20333;-66
2021/06/18 01:06:49;;;;;;;6.03;5.47;;;21.40;82.80;;;;;;6272272;28;20238;-65
2021/06/18 01:10:14;;;;;;;6.23;5.73;;;21.50;82.50;;;;;;6276582;28;20228;-64
2021/06/18 01:13:40;;;;;;;6.37;5.80;;;21.50;82.20;;;;;;6276716;28;20227;-65
2021/06/18 01:16:49;;;;;;;6.73;6.00;;;21.60;82.30;;;;;;6276774;28;20239;-65
2021/06/18 01:20:09;;;;;;;5.40;5.00;;;21.60;82.20;;;;;;6276356;28;20235;-65
2021/06/18 01:23:23;;;;;;;6.47;5.93;;;21.60;82.20;;;;;;6276870;28;20361;-64
2021/06/18 01:26:37;;;;;;;6.73;6.00;;;21.70;82.40;;;;;;6276283;28;20228;-67
2021/06/18 01:29:45;;;;;;;7.93;6.30;;;21.70;82.20;;;;;;6276615;28;20220;-65
2021/06/18 01:32:57;;;;;;;5.87;5.50;;;21.80;82.60;;;;;;6276660;28;20246;-65
2021/06/18 01:36:05;;;;;;;6.60;6.00;;;21.90;82.60;;;;;;6276089;28;20239;-65
2021/06/18 01:39:09;;;;;;;5.53;5.13;;;21.90;82.00;;;;;;6276182;28;20227;-65
2021/06/18 01:42:14;;;;;;;5.57;5.17;;;21.80;81.80;;;;;;6276308;28;20235;-64
2021/06/18 01:45:21;;;;;;;6.60;6.10;;;21.80;81.80;;;;;;6276027;28;20588;-65
2021/06/18 01:48:26;;;;;;;5.80;5.30;;;21.90;82.20;;;;;;6275980;28;20235;-64
2021/06/18 01:51:32;;;;;;;6.30;5.80;;;21.80;82.20;;;;;;6276001;28;20258;-65
2021/06/18 01:54:37;;;;;;;5.47;5.00;;;21.80;82.00;;;;;;6275956;28;20729;-64
2021/06/18 01:57:42;;;;;;;9.23;6.33;;;21.80;82.50;;;;;;6275413;28;20250;-65
2021/06/18 02:00:49;;;;;;;5.90;5.50;;;21.70;82.90;;;;;;6275457;28;20683;-64
2021/06/18 02:03:53;;;;;;;6.23;5.83;;;21.70;83.00;;;;;;6275381;28;20231;-65
2021/06/18 02:06:57;;;;;;;6.10;5.60;;;21.70;83.10;;;;;;6275560;28;20236;-65
2021/06/18 02:10:02;;;;;;;5.90;5.40;;;21.60;82.70;;;;;;6266288;28;20675;-65
2021/06/18 02:13:07;;;;;;;6.70;6.10;;;21.60;82.90;;;;;;6275778;28;20268;-65
2021/06/18 02:16:17;;;;;;;6.47;5.87;;;21.60;83.00;;;;;;6275324;28;20227;-64
2021/06/18 02:19:22;;;;;;;6.23;5.70;;;21.50;83.30;;;;;;6275159;28;20232;-65
2021/06/18 02:22:26;;;;;;;6.43;5.80;;;21.50;83.50;;;;;;6274575;28;20244;-65
2021/06/18 02:25:31;;;;;;;6.07;5.43;;;21.50;83.70;;;;;;6275196;28;20234;-65
2021/06/18 02:28:35;;;;;;;6.60;6.10;;;21.40;83.80;;;;;;6274858;28;20238;-65
2021/06/18 02:31:40;;;;;;;6.00;5.60;;;21.30;84.60;;;;;;6274842;28;20231;-65
2021/06/18 02:34:44;;;;;;;5.90;5.50;;;21.20;85.30;;;;;;6275059;28;20231;-65
2021/06/18 02:37:47;;;;;;;5.50;5.10;;;21.20;86.00;;;;;;6274597;28;20227;-65
2021/06/18 02:40:51;;;;;;;6.00;5.40;;;21.40;85.90;;;;;;6274819;28;20227;-65
2021/06/18 02:43:54;;;;;;;5.43;5.03;;;21.40;85.50;;;;;;6274654;28;20232;-65
2021/06/18 02:47:05;;;;;;;5.00;4.63;;;21.50;85.40;;;;;;6274670;28;20242;-65
2021/06/18 02:50:14;;;;;;;5.30;4.90;;;21.40;85.60;;;;;;6299133;28;20659;-64
2021/06/18 02:53:25;;;;;;;5.90;5.50;;;21.40;86.00;;;;;;6299578;28;20188;-65
2021/06/18 02:56:35;;;;;;;5.27;4.70;;;21.50;86.10;;;;;;6299146;28;20223;-65
2021/06/18 02:59:51;;;;;;;5.47;5.07;;;21.60;86.20;;;;;;6299283;28;20242;-65
2021/06/18 03:02:59;;;;;;;7.67;5.80;;;21.60;85.80;;;;;;6299407;28;20231;-65
2021/06/18 03:06:04;;;;;;;6.17;5.67;;;21.70;85.50;;;;;;6299200;28;20223;-65
2021/06/18 03:09:09;;;;;;;5.80;5.17;;;21.70;85.20;;;;;;6299001;28;20245;-66
2021/06/18 03:12:13;;;;;;;6.47;6.07;;;21.80;85.20;;;;;;6294863;28;20241;-65
2021/06/18 03:15:18;;;;;;;6.83;6.07;;;21.70;85.00;;;;;;6298963;28;20575;-65
2021/06/18 03:18:25;;;;;;;7.00;6.40;;;21.70;85.00;;;;;;6299128;28;20241;-65
2021/06/18 03:21:31;;;;;;;6.00;5.50;;;21.70;85.10;;;;;;6299333;28;20227;-65
2021/06/18 03:24:36;;;;;;;6.20;5.70;;;21.70;85.30;;;;;;6299341;28;20234;-65
2021/06/18 03:27:40;;;;;;;6.37;5.87;;;21.70;85.30;;;;;;6298643;28;20671;-66
2021/06/18 03:30:47;;;;;;;5.60;5.20;;;21.80;85.40;;;;;;6299093;28;20235;-65
2021/06/18 03:33:52;;;;;;;5.80;5.40;;;21.80;85.20;;;;;;6301620;28;20237;-66
2021/06/18 03:36:56;;;;;;;6.80;6.07;;;21.80;85.40;;;;;;6303985;28;20243;-65
2021/06/18 03:40:00;;;;;;;7.37;6.67;;;21.90;85.40;;;;;;6303696;28;20243;-65
2021/06/18 03:43:04;;;;;;;6.93;5.63;;;21.90;85.50;;;;;;6303840;28;20226;-64
2021/06/18 03:46:09;;;;;;;7.17;6.47;;;21.90;85.40;;;;;;6303688;28;20226;-65
2021/06/18 03:49:14;;;;;;;5.70;5.20;;;21.90;85.40;;;;;;6303847;28;20357;-65
2021/06/18 03:52:18;;;;;;;7.20;6.60;;;22.00;85.40;;;;;;6303313;28;20231;-65
2021/06/18 03:55:21;;;;;;;6.17;5.70;;;22.10;85.30;;;;;;6303556;28;20249;-66
2021/06/18 03:58:27;;;;;;;6.10;5.63;;;22.10;85.00;;;;;;6303425;28;20242;-65
2021/06/18 04:01:31;;;;;;;7.63;7.03;;;22.20;84.90;;;;;;6303322;28;20690;-65
2021/06/18 04:04:37;;;;;;;8.73;7.83;;;22.20;84.80;;;;;;6303156;28;20565;-66
2021/06/18 04:07:45;;;;;;;7.50;6.63;;;22.20;85.30;;;;;;6303578;28;20246;-66
2021/06/18 04:10:49;;;;;;;8.97;6.50;;;22.10;85.80;;;;;;6303093;28;20227;-66
2021/06/18 04:13:52;;;;;;;7.47;6.87;;;22.20;85.80;;;;;;6303020;28;20237;-66
2021/06/18 04:16:56;;;;;;;6.87;6.33;;;22.30;85.70;;;;;;6302893;28;20744;-66
2021/06/18 04:20:02;;;;;;;8.20;6.60;;;22.30;85.50;;;;;;6302765;28;20234;-66
2021/06/18 04:23:06;;;;;;;10.70;6.40;;;22.30;85.50;;;;;;6303194;28;20230;-66
2021/06/18 04:26:09;;;;;;;6.83;6.33;;;22.40;85.60;;;;;;6303927;28;20205;-60
2021/06/18 04:29:12;;;;;;;7.50;6.50;;;22.40;85.70;;;;;;6287902;28;20203;-61
2021/06/18 04:32:16;;;;;;;7.70;6.60;;;22.40;85.60;;;;;;6290063;28;20207;-57
2021/06/18 04:35:20;;;;;;;7.90;7.10;;;22.50;85.70;;;;;;6293910;28;20256;-57
2021/06/18 04:38:23;;;;;;;7.83;7.00;;;22.60;85.60;;;;;;6287326;28;20224;-57
2021/06/18 04:41:27;;;;;;;8.40;7.00;;;22.60;85.50;;;;;;6277382;28;20224;-60
2021/06/18 04:44:30;;;;;;;7.47;6.63;;;22.70;85.50;;;;;;6276348;28;20253;-60
2021/06/18 04:47:34;;;;;;;8.53;7.70;;;22.70;85.30;;;;;;6276570;28;20577;-66
2021/06/18 04:50:39;;;;;;;8.23;6.67;;;22.70;85.20;;;;;;6276250;28;20228;-61
2021/06/18 04:53:42;;;;;;;8.20;7.43;;;22.70;85.40;;;;;;6276220;28;20250;-66
2021/06/18 04:56:45;;;;;;;8.30;7.60;;;22.70;85.70;;;;;;6276317;28;20235;-66
2021/06/18 04:59:50;;;;;;;8.17;7.50;;;22.70;86.30;;;;;;6276457;28;20231;-58
2021/06/18 05:02:53;;;;;;;9.17;8.23;;;22.80;86.20;;;;;;6276414;28;20514;-57
2021/06/18 05:05:58;;;;;;;8.27;7.37;;;23.00;85.60;;;;;;6276846;28;20227;-56
2021/06/18 05:09:01;;;;;;;9.97;8.53;;;23.10;85.00;;;;;;6276754;28;20243;-58
2021/06/18 05:12:05;;;;;;;7.47;6.77;;;23.20;84.60;;;;;;6276139;28;20579;-56
2021/06/18 05:15:09;;;;;;;8.07;7.33;;;23.30;84.40;;;;;;6277000;28;20266;-56
2021/06/18 05:18:12;;;;;;;7.47;6.80;;;23.40;84.50;;;;;;6276623;28;20223;-58
2021/06/18 05:21:17;;;;;;;8.40;7.57;;;23.40;84.10;;;;;;6276338;28;20709;-57
2021/06/18 05:24:20;;;;;;;8.83;7.93;;;23.50;84.30;;;;;;6276228;28;20238;-58
2021/06/18 05:27:23;;;;;;;9.60;8.60;;;23.50;84.00;;;;;;6276392;28;20246;-60
2021/06/18 05:30:26;;;;;;;8.97;8.13;;;23.60;83.70;;;;;;6276726;28;20231;-61
2021/06/18 05:33:30;;;;;;;9.80;8.80;;;23.70;83.80;;;;;;6276232;28;20242;-61
2021/06/18 05:36:35;;;;;;;9.43;8.43;;;23.90;83.60;;;;;;6276211;28;20231;-61
2021/06/18 05:39:38;;;;;;;8.30;7.70;;;23.90;81.90;;;;;;6276766;28;20242;-66
2021/06/18 05:42:41;;;;;;;9.60;8.60;;;24.00;81.80;;;;;;6276438;28;20235;-66
2021/06/18 05:45:45;;;;;;;10.07;9.03;;;24.20;80.80;;;;;;6276284;28;20691;-67
2021/06/18 05:48:48;;;;;;;9.03;8.17;;;24.40;79.50;;;;;;6276207;28;20242;-67
2021/06/18 05:51:52;;;;;;;9.93;8.70;;;24.40;78.50;;;;;;6276142;28;20230;-66
2021/06/18 05:54:55;;;;;;;9.17;7.90;;;24.40;78.30;;;;;;6276240;28;20250;-67
2021/06/18 05:57:59;;;;;;;8.57;7.67;;;24.50;76.50;;;;;;6275734;28;20232;-67
2021/06/18 06:01:02;;;;;;;8.80;7.97;;;24.60;76.10;;;;;;6275643;28;20679;-66
2021/06/18 06:04:06;;;;;;;9.10;7.70;;;24.70;75.50;;;;;;6275543;28;20239;-67
2021/06/18 06:07:10;;;;;;;9.77;7.93;;;24.90;75.30;;;;;;6275481;28;20247;-66
2021/06/18 06:10:14;;;;;;;10.37;8.40;;;25.10;74.90;;;;;;6275527;28;20238;-67
2021/06/18 06:13:19;;;;;;;8.03;7.40;;;25.30;73.90;;;;;;6275331;28;20238;-66
2021/06/18 06:16:22;;;;;;;8.27;7.47;;;25.70;73.10;;;;;;6275361;28;20223;-67
2021/06/18 06:19:26;;;;;;;9.10;7.40;;;26.40;71.30;;;;;;6274957;28;20319;-67
2021/06/18 06:22:30;;;;;;;7.67;6.90;;;27.00;68.80;;;;;;6274990;28;20237;-58
2021/06/18 06:25:34;;;;;;;8.40;7.57;;;27.40;67.40;;;;;;6275141;28;20242;-61
2021/06/18 06:28:37;;;;;;;6.50;5.87;;;27.90;66.20;;;;;;6275004;28;20230;-61
2021/06/18 06:31:43;;;;;;;7.43;6.77;;;28.20;65.30;;;;;;6274765;28;20231;-61
2021/06/18 06:34:46;;;;;;;7.13;6.63;;;28.60;63.70;;;;;;6275014;28;20235;-61
2021/06/18 06:37:51;;;;;;;7.67;7.03;;;28.90;62.80;;;;;;6273992;28;20479;-61
2021/06/18 06:40:54;;;;;;;7.30;6.80;;;29.20;61.90;;;;;;6274059;28;20678;-67
2021/06/18 06:43:57;;;;;;;6.70;6.10;;;29.50;60.70;;;;;;6273933;28;20249;-61
2021/06/18 06:47:01;;;;;;;8.60;6.50;;;29.90;60.20;;;;;;6273689;28;20572;-61
2021/06/18 06:50:05;;;;;;;8.80;6.67;;;30.40;59.30;;;;;;6272296;28;20620;-67
2021/06/18 06:53:10;;;;;;;7.53;6.93;;;30.90;58.50;;;;;;6272927;28;20502;-66
2021/06/18 06:56:14;;;;;;;7.97;7.35;;;31.30;57.60;;;;;;6273674;28;20281;-67
2021/06/18 06:59:18;;;;;;;7.15;6.65;;;31.90;56.60;;;;;;6273622;28;20246;-67
2021/06/18 07:02:21;;;;;;;6.93;6.32;;;32.40;55.10;;;;;;6273426;28;20206;-67
2021/06/18 07:05:24;;;;;;;7.75;6.95;;;32.70;54.30;;;;;;6273539;28;20284;-67
2021/06/18 07:08:29;;;;;;;7.32;6.72;;;33.20;53.00;;;;;;6277996;28;20227;-67
2021/06/18 07:11:33;;;;;;;9.07;8.27;;;33.60;51.80;;;;;;6298830;28;20222;-67
2021/06/18 07:14:37;;;;;;;6.88;6.28;;;34.00;50.70;;;;;;6298881;28;20222;-67
2021/06/18 07:17:40;;;;;;;6.57;6.00;;;34.90;49.40;;;;;;6299005;28;20245;-68
2021/06/18 07:20:44;;;;;;;6.25;5.75;;;35.50;47.90;;;;;;6299147;28;20344;-68
2021/06/18 07:23:48;;;;;;;6.07;5.57;;;35.70;46.10;;;;;;6298920;28;20229;-67
2021/06/18 07:26:52;;;;;;;6.60;6.00;;;36.00;45.10;;;;;;6294350;28;20234;-67
2021/06/18 07:29:55;;;;;;;6.63;6.03;;;35.40;45.30;;;;;;6298608;28;20238;-67
2021/06/18 07:32:58;;;;;;;6.93;6.38;;;36.00;44.90;;;;;;6299061;28;20226;-67
2021/06/18 07:36:02;;;;;;;5.85;5.35;;;35.80;44.30;;;;;;6298608;28;20712;-67
2021/06/18 07:39:09;;;;;;;5.15;4.72;;;36.10;44.00;;;;;;6298499;28;20230;-67
2021/06/18 07:42:12;;;;;;;6.68;6.18;;;36.30;43.80;;;;;;6299180;28;20222;-68
2021/06/18 07:45:15;;;;;;;6.53;6.07;;;36.70;43.30;;;;;;6298720;28;20237;-62
2021/06/18 07:48:19;;;;;;;11.77;6.25;;;35.90;42.60;;;;;;6298822;28;20720;-58
2021/06/18 07:51:23;;;;;;;6.18;5.78;;;34.60;44.60;;;;;;6298745;28;20225;-59
2021/06/18 07:54:27;;;;;;;7.30;6.00;;;34.20;45.80;;;;;;6298602;28;20241;-58
2021/06/18 07:57:31;;;;;;;6.47;5.93;;;34.00;46.30;;;;;;6287258;28;20233;-67
2021/06/18 08:00:34;;;;;;;8.10;6.38;;;33.90;46.70;;;;;;6285948;28;20236;-61
2021/06/18 08:03:37;;;;;;;6.38;5.97;;;33.80;47.00;;;;;;6285963;28;20667;-61
2021/06/18 08:06:41;;;;;;;7.82;6.40;;;33.50;47.00;;;;;;6284782;28;20222;-61
2021/06/18 08:09:45;;;;;;;6.35;5.95;;;32.80;46.80;;;;;;6285401;28;20233;-62
2021/06/18 08:12:48;;;;;;;7.20;6.70;;;32.30;48.60;;;;;;6284199;28;20223;-60
2021/06/18 08:15:52;;;;;;;6.80;5.97;;;32.00;49.30;;;;;;6279009;28;20237;-60
2021/06/18 08:18:55;;;;;;;6.10;5.70;;;31.90;49.10;;;;;;6304313;28;20226;-60
2021/06/18 08:21:58;;;;;;;7.00;6.30;;;31.90;49.20;;;;;;6311145;28;20234;-59
2021/06/18 08:25:03;;;;;;;7.13;6.43;;;31.90;49.00;;;;;;6302457;28;20237;-60
2021/06/18 08:28:07;;;;;;;6.57;6.07;;;32.00;49.30;;;;;;6301770;28;20309;-61
2021/06/18 08:31:11;;;;;;;9.25;6.18;;;31.70;49.60;;;;;;6297807;28;20745;-60
2021/06/18 08:34:14;;;;;;;7.30;6.30;;;31.40;49.50;;;;;;6286256;28;20231;-60
2021/06/18 08:37:18;;;;;;;6.85;6.25;;;31.30;50.40;;;;;;6296329;28;20575;-64
2021/06/18 08:40:23;;;;;;;6.40;5.82;;;31.10;50.70;;;;;;6302228;28;20355;-60
2021/06/18 08:43:26;;;;;;;5.90;5.50;;;31.00;50.90;;;;;;6302205;28;20371;-60
2021/06/18 08:46:29;;;;;;;6.68;6.07;;;31.00;50.90;;;;;;6302389;28;20222;-60
2021/06/18 08:49:34;;;;;;;6.82;6.38;;;31.20;50.20;;;;;;6301605;28;20305;-60
2021/06/18 08:52:39;;;;;;;7.10;6.03;;;31.20;50.40;;;;;;6302113;28;20229;-60
2021/06/18 08:55:44;;;;;;;6.95;6.35;;;31.40;49.70;;;;;;6301572;28;20226;-59
2021/06/18 08:58:48;;;;;;;5.55;5.07;;;31.40;49.00;;;;;;6301872;28;20238;-59
2021/06/18 09:01:51;;;;;;;6.50;5.90;;;31.40;49.10;;;;;;6301096;28;20681;-61
2021/06/18 09:05:06;;;;;;;6.45;6.05;;;31.40;48.90;;;;;;6325547;28;20267;-60
2021/06/18 09:08:09;;;;;;;6.18;5.68;;;31.60;49.00;;;;;;6301427;28;20226;-60
2021/06/18 09:11:37;;;;;;;6.15;5.75;;;31.60;49.50;;;;;;6301736;28;20198;-60
2021/06/18 09:14:41;;;;;;;5.93;5.43;;;31.70;48.70;;;;;;6301605;28;20229;-59
2021/06/18 09:17:44;;;;;;;6.95;6.45;;;31.80;48.10;;;;;;6301627;28;20230;-62
2021/06/18 09:20:48;;;;;;;5.45;4.95;;;31.70;48.80;;;;;;6282228;28;20633;-60
2021/06/18 09:23:53;;;;;;;6.32;5.82;;;31.70;49.10;;;;;;6283088;28;20237;-60
2021/06/18 09:26:58;;;;;;;6.63;6.13;;;31.80;49.00;;;;;;6284879;28;20673;-61
2021/06/18 09:30:17;;;;;;;6.15;5.55;;;31.70;47.70;;;;;;6283237;28;20242;-61
2021/06/18 09:33:24;;;;;;;6.55;6.03;;;31.70;48.70;;;;;;6275849;28;20242;-61
2021/06/18 09:36:27;;;;;;;5.28;4.97;;;31.70;48.30;;;;;;6279089;28;20230;-61
2021/06/18 09:39:31;;;;;;;6.60;6.00;;;31.70;48.30;;;;;;6294745;28;20257;-60
2021/06/18 09:42:37;;;;;;;6.43;5.82;;;31.40;48.90;;;;;;6313286;28;20586;-60
2021/06/18 09:45:41;;;;;;;6.38;5.93;;;31.40;48.90;;;;;;6298108;28;20237;-61
2021/06/18 09:48:45;;;;;;;7.30;6.80;;;31.70;48.90;;;;;;6279159;28;20222;-64
2021/06/18 09:51:56;;;;;;;6.47;5.88;;;31.80;48.50;;;;;;6288097;28;20230;-65
2021/06/18 09:54:59;;;;;;;6.88;6.28;;;31.60;49.00;;;;;;6275836;28;20227;-63
2021/06/18 09:58:03;;;;;;;5.85;5.45;;;31.80;48.60;;;;;;6275527;28;20231;-63
2021/06/18 10:01:14;;;;;;;6.50;6.00;;;31.90;48.30;;;;;;6283251;28;20229;-64
2021/06/18 10:04:17;;;;;;;7.00;6.32;;;32.10;48.10;;;;;;6305323;28;20229;-63
2021/06/18 10:07:27;;;;;;;6.50;6.10;;;31.90;48.20;;;;;;6292360;28;20222;-62
2021/06/18 10:10:38;;;;;;;8.27;5.80;;;32.10;48.80;;;;;;6309235;28;20229;-64
2021/06/18 10:13:43;;;;;;;6.72;6.15;;;32.30;48.20;;;;;;6303582;28;20234;-63
2021/06/18 10:16:47;;;;;;;6.38;5.97;;;32.40;48.10;;;;;;6299787;28;20230;-65
2021/06/18 10:19:50;;;;;;;7.40;6.90;;;32.40;48.10;;;;;;6299221;28;20248;-65
2021/06/18 10:22:57;;;;;;;6.88;6.28;;;32.40;47.90;;;;;;6299791;28;20225;-66
2021/06/18 10:26:01;;;;;;;7.07;6.57;;;32.40;47.50;;;;;;6296929;28;20687;-66
2021/06/18 10:29:06;;;;;;;6.85;6.35;;;32.50;48.20;;;;;;6296686;28;20226;-64
2021/06/18 10:32:32;;;;;;;8.02;7.43;;;32.60;48.40;;;;;;6296876;28;20202;-65
2021/06/18 10:35:49;;;;;;;7.38;6.78;;;32.40;49.00;;;;;;6296638;28;20226;-66
2021/06/18 10:39:05;;;;;;;7.43;6.93;;;32.50;49.30;;;;;;6288244;28;20237;-66
2021/06/18 10:42:16;;;;;;;6.63;6.22;;;32.30;47.00;;;;;;6299050;28;20249;-65
2021/06/18 10:45:21;;;;;;;6.45;6.05;;;32.30;46.80;;;;;;6299897;28;20231;-64
2021/06/18 10:48:57;;;;;;;6.85;6.35;;;32.40;47.10;;;;;;6299350;28;20809;-64
2021/06/18 10:52:00;;;;;;;7.85;7.05;;;32.60;47.10;;;;;;6299440;28;20226;-66
2021/06/18 10:55:04;;;;;;;5.90;5.45;;;32.60;47.90;;;;;;6299356;28;20700;-64
2021/06/18 10:58:07;;;;;;;6.93;6.32;;;32.60;48.70;;;;;;6299096;28;20700;-67
2021/06/18 11:01:31;;;;;;;7.20;6.63;;;32.70;48.10;;;;;;6298499;28;20666;-65
2021/06/18 11:04:41;;;;;;;7.90;7.30;;;32.40;47.90;;;;;;6299328;28;20573;-67
2021/06/18 11:07:45;;;;;;;7.60;7.10;;;32.20;48.90;;;;;;6298865;28;20257;-65
2021/06/18 11:10:49;;;;;;;8.50;7.03;;;32.20;47.50;;;;;;6299234;28;20217;-65
2021/06/18 11:14:02;;;;;;;7.85;7.25;;;31.90;48.40;;;;;;6298680;28;20233;-65
2021/06/18 11:17:39;;;;;;;6.70;6.22;;;31.70;48.40;;;;;;6298859;28;20226;-66
2021/06/18 11:21:07;;;;;;;6.47;5.90;;;31.70;48.30;;;;;;6299214;28;20226;-65
2021/06/18 11:24:10;;;;;;;7.82;7.32;;;31.80;48.40;;;;;;6285091;28;20226;-65
2021/06/18 11:27:30;;;;;;;7.88;7.22;;;31.70;47.30;;;;;;6299001;28;20230;-65
2021/06/18 11:30:33;;;;;;;8.35;7.50;;;31.70;49.60;;;;;;6297398;28;20543;-65
2021/06/18 11:33:59;;;;;;;7.85;7.22;;;32.10;50.00;;;;;;6298607;28;20704;-65
2021/06/18 11:37:03;;;;;;;8.40;7.70;;;32.30;49.60;;;;;;6298672;28;20686;-65
2021/06/18 11:40:08;;;;;;;9.35;8.55;;;32.50;49.70;;;;;;6298634;28;20222;-66
2021/06/18 11:43:12;;;;;;;7.68;7.10;;;32.80;49.10;;;;;;6311330;28;20241;-67
2021/06/18 11:46:15;;;;;;;7.70;6.95;;;33.10;48.20;;;;;;6305640;28;20230;-67
2021/06/18 11:49:25;;;;;;;7.57;6.97;;;32.30;47.00;;;;;;6298468;28;20241;-67
2021/06/18 11:52:30;;;;;;;6.78;6.38;;;31.90;49.00;;;;;;6298611;28;20218;-66
2021/06/18 11:55:33;;;;;;;7.75;7.15;;;32.00;49.20;;;;;;6302225;28;20230;-65
2021/06/18 11:58:39;;;;;;;7.68;7.07;;;32.30;49.20;;;;;;6302492;28;20249;-65
2021/06/18 12:01:43;;;;;;;8.02;7.22;;;32.50;49.10;;;;;;6324815;28;20241;-66
2021/06/18 12:05:01;;;;;;;7.60;7.00;;;32.80;48.60;;;;;;6305940;28;20237;-67
2021/06/18 12:08:14;;;;;;;7.55;7.05;;;33.10;48.10;;;;;;6303130;28;20234;-67
2021/06/18 12:11:17;;;;;;;7.47;6.78;;;33.20;47.40;;;;;;6304946;28;20206;-67
2021/06/18 12:14:21;;;;;;;7.68;7.18;;;33.00;47.30;;;;;;6328217;28;20206;-65
2021/06/18 12:17:25;;;;;;;7.50;7.00;;;32.70;47.80;;;;;;6328164;28;20676;-65
2021/06/18 12:20:33;;;;;;;7.35;6.75;;;32.80;47.60;;;;;;6326910;28;20230;-65
2021/06/18 12:23:36;;;;;;;7.10;6.60;;;32.90;47.70;;;;;;6327929;28;20229;-66
2021/06/18 12:26:40;;;;;;;7.93;7.38;;;33.10;47.50;;;;;;6327647;28;20540;-65
2021/06/18 12:29:49;;;;;;;7.43;6.63;;;32.90;47.80;;;;;;6327874;28;20566;-66
2021/06/18 12:32:53;;;;;;;7.53;6.78;;;33.20;47.60;;;;;;6327618;28;20232;-66
2021/06/18 12:36:00;;;;;;;8.65;7.22;;;33.00;47.60;;;;;;6327538;28;20335;-66
2021/06/18 12:39:11;;;;;;;7.32;6.63;;;33.10;47.70;;;;;;6327103;28;20221;-66
2021/06/18 12:42:22;;;;;;;8.38;7.63;;;33.10;47.30;;;;;;6327659;28;20233;-66
2021/06/18 12:45:26;;;;;;;8.35;7.65;;;32.60;48.10;;;;;;6326989;28;20249;-66
2021/06/18 12:48:51;;;;;;;7.65;7.15;;;32.70;48.30;;;;;;6322647;28;20281;-66
2021/06/18 12:52:08;;;;;;;8.93;8.30;;;32.50;48.80;;;;;;6326840;28;20778;-66
2021/06/18 12:55:12;;;;;;;8.60;7.90;;;32.20;48.90;;;;;;6327024;28;20238;-66
2021/06/18 12:58:17;;;;;;;8.35;7.72;;;31.70;50.10;;;;;;6326040;28;20237;-66
2021/06/18 13:01:23;;;;;;;7.28;6.60;;;31.80;50.20;;;;;;6326887;28;22165;-65
2021/06/18 13:04:41;;;;;;;7.13;6.53;;;32.10;50.10;;;;;;6324860;28;20301;-64
2021/06/18 13:07:47;;;;;;;7.75;7.18;;;32.30;49.10;;;;;;6324789;28;20234;-64
2021/06/18 13:10:52;;;;;;;7.43;6.82;;;32.30;49.10;;;;;;6325567;28;20233;-64
2021/06/18 13:14:12;;;;;;;8.68;7.90;;;32.50;48.60;;;;;;6324727;28;20236;-67
2021/06/18 13:17:15;;;;;;;7.72;6.95;;;32.40;48.30;;;;;;6316568;28;20673;-65
2021/06/18 13:20:32;;;;;;;7.57;6.97;;;32.10;48.20;;;;;;6314146;28;20747;-65
2021/06/18 13:23:37;;;;;;;7.15;6.55;;;32.20;48.60;;;;;;6325765;28;20221;-66
2021/06/18 13:26:41;;;;;;;7.47;6.88;;;32.30;48.60;;;;;;6304641;28;20676;-65
2021/06/18 13:29:55;;;;;;;7.82;7.13;;;32.30;48.20;;;;;;6300154;28;20230;-66
2021/06/18 13:33:01;;;;;;;9.57;8.50;;;32.10;48.50;;;;;;6301202;28;20240;-66
2021/06/18 13:36:06;;;;;;;7.85;7.25;;;32.10;48.70;;;;;;6300646;28;20222;-66
2021/06/18 13:39:18;;;;;;;9.05;7.95;;;32.20;48.80;;;;;;6308309;28;20245;-65
2021/06/18 13:42:21;;;;;;;7.82;7.07;;;32.00;48.40;;;;;;6324428;28;20836;-67
2021/06/18 13:45:24;;;;;;;7.88;7.30;;;32.00;48.40;;;;;;6325169;28;20675;-65
2021/06/18 13:48:27;;;;;;;8.35;7.85;;;32.10;48.10;;;;;;6324173;28;20275;-65
2021/06/18 13:51:31;;;;;;;7.20;6.70;;;32.20;48.00;;;;;;6319312;28;20230;-65
2021/06/18 13:54:35;;;;;;;7.93;7.22;;;32.30;48.10;;;;;;6324963;28;20225;-65
2021/06/18 13:57:39;;;;;;;8.15;7.35;;;32.40;47.90;;;;;;6323810;28;20237;-64
2021/06/18 14:00:42;;;;;;;8.75;7.95;;;32.40;48.20;;;;;;6324794;28;20240;-64
2021/06/18 14:03:45;;;;;;;7.82;7.32;;;32.20;48.30;;;;;;6325022;28;20249;-64
2021/06/18 14:06:48;;;;;;;8.18;7.57;;;32.30;48.10;;;;;;6325357;28;20234;-66
2021/06/18 14:09:53;;;;;;;8.13;7.60;;;32.40;47.80;;;;;;6317802;28;20566;-64
2021/06/18 14:12:56;;;;;;;7.93;7.32;;;32.50;47.90;;;;;;6300394;28;20242;-64
2021/06/18 14:15:59;;;;;;;8.68;8.00;;;32.40;48.30;;;;;;6300109;28;20539;-66
2021/06/18 14:19:04;;;;;;;7.43;6.93;;;32.20;48.10;;;;;;6298897;28;20567;-65
2021/06/18 14:22:07;;;;;;;8.73;7.97;;;32.20;48.30;;;;;;6299510;28;20241;-66
2021/06/18 14:25:13;;;;;;;6.80;6.20;;;32.00;48.40;;;;;;6300003;28;20682;-65
2021/06/18 14:28:17;;;;;;;8.02;7.43;;;31.80;49.10;;;;;;6299659;28;20240;-64
2021/06/18 14:31:22;;;;;;;8.80;8.10;;;31.70;49.20;;;;;;6308431;28;20218;-67
2021/06/18 14:34:25;;;;;;;9.27;7.55;;;31.20;49.80;;;;;;6305224;28;20233;-67
2021/06/18 14:37:28;;;;;;;8.80;8.10;;;31.10;50.70;;;;;;6313685;28;20221;-65
2021/06/18 14:40:33;;;;;;;8.00;7.20;;;31.20;50.90;;;;;;6309941;28;20233;-65
2021/06/18 14:43:37;;;;;;;7.05;6.55;;;31.10;50.80;;;;;;6299269;28;20237;-66
2021/06/18 14:46:40;;;;;;;8.07;7.47;;;31.00;51.20;;;;;;6312600;28;20677;-68
2021/06/18 14:49:43;;;;;;;8.00;7.40;;;30.90;51.20;;;;;;6324191;28;20225;-65
2021/06/18 14:52:47;;;;;;;8.00;7.35;;;31.00;51.40;;;;;;6316837;28;20665;-64
2021/06/18 14:55:51;;;;;;;7.85;7.18;;;30.80;51.30;;;;;;6300340;28;20653;-66
2021/06/18 14:58:55;;;;;;;7.78;7.18;;;30.70;52.00;;;;;;6309144;28;20248;-66
2021/06/18 15:01:58;;;;;;;9.03;8.37;;;30.70;51.50;;;;;;6321356;28;20222;-66
2021/06/18 15:05:03;;;;;;;8.55;7.70;;;30.50;52.20;;;;;;6306871;28;20221;-66
2021/06/18 15:08:06;;;;;;;8.38;7.60;;;30.70;52.40;;;;;;6308377;28;20301;-66
2021/06/18 15:11:11;;;;;;;8.75;8.07;;;30.90;52.00;;;;;;6314495;28;20224;-65
2021/06/18 15:14:16;;;;;;;7.82;7.22;;;30.90;51.60;;;;;;6323577;28;20224;-66
2021/06/18 15:17:19;;;;;;;9.00;8.40;;;30.70;52.30;;;;;;6324495;28;20286;-66
2021/06/18 15:20:23;;;;;;;7.65;6.95;;;30.60;52.50;;;;;;6323865;28;20637;-66
2021/06/18 15:23:26;;;;;;;8.60;7.80;;;30.70;52.50;;;;;;6324645;28;20217;-69
2021/06/18 15:26:31;;;;;;;8.53;7.83;;;30.60;52.90;;;;;;6320482;28;20240;-66
2021/06/18 15:29:36;;;;;;;8.90;8.00;;;30.40;53.20;;;;;;6315193;28;20236;-66
2021/06/18 15:32:40;;;;;;;8.10;7.60;;;30.50;53.60;;;;;;6316863;28;20218;-66
2021/06/18 15:35:43;;;;;;;9.68;9.05;;;30.70;53.30;;;;;;6314433;28;20225;-69
2021/06/18 15:38:46;;;;;;;8.45;7.75;;;30.90;53.20;;;;;;6315934;28;20233;-66
2021/06/18 15:41:51;;;;;;;8.60;7.95;;;31.00;53.30;;;;;;6304041;28;20230;-64
2021/06/18 15:45:05;;;;;;;10.05;9.25;;;30.90;53.30;;;;;;6303422;28;20245;-65
2021/06/18 15:48:08;;;;;;;9.32;8.50;;;31.00;53.50;;;;;;6303498;28;20241;-64
2021/06/18 15:51:15;;;;;;;9.18;8.40;;;30.90;54.30;;;;;;6303565;28;20248;-66
2021/06/18 15:54:18;;;;;;;9.25;8.45;;;31.00;54.00;;;;;;6327903;28;20240;-66
2021/06/18 15:57:22;;;;;;;8.95;8.35;;;31.00;54.10;;;;;;6328307;28;20256;-66
2021/06/18 16:00:26;;;;;;;8.82;8.13;;;31.00;54.00;;;;;;6321010;28;20230;-65
2021/06/18 16:03:29;;;;;;;8.82;8.23;;;30.80;54.20;;;;;;6324740;28;20234;-66
2021/06/18 16:06:33;;;;;;;9.57;8.77;;;30.70;54.80;;;;;;6327981;28;20240;-67